sensor_id;sensor_type;location;lat;lon;timestamp;pressure;altitude;pressure_sealevel;temperature;humidity
71239;BME280;61342;51.442;7.370;2022-10-31T00:00:46;100511.13;;;18.28;65.93
71239;BME280;61342;51.442;7.370;2022-10-31T00:01:46;100517.72;;;18.28;66.08
71239;BME280;61342;51.442;7.370;2022-10-31T00:02:47;100525.09;;;18.29;66.53
71239;BME280;61342;51.442;7.370;2022-10-31T00:03:47;100515.78;;;18.23;66.31
71239;BME280;61342;51.442;7.370;2022-10-31T00:04:48;100516.53;;;18.24;66.77
71239;BME280;61342;51.442;7.370;2022-10-31T00:05:49;100521.38;;;18.21;66.90
71239;BME280;61342;51.442;7.370;2022-10-31T00:06:49;100523.31;;;18.19;66.56
71239;BME280;61342;51.442;7.370;2022-10-31T00:07:53;100518.06;;;18.17;66.95
71239;BME280;61342;51.442;7.370;2022-10-31T00:08:58;100516.88;;;18.13;67.10
71239;BME280;61342;51.442;7.370;2022-10-31T00:09:59;100516.88;;;18.13;67.32
71239;BME280;61342;51.442;7.370;2022-10-31T00:10:59;100517.63;;;18.13;67.52
71239;BME280;61342;51.442;7.370;2022-10-31T00:12:00;100517.81;;;18.15;67.72
71239;BME280;61342;51.442;7.370;2022-10-31T00:13:00;100520.59;;;18.21;67.61
71239;BME280;61342;51.442;7.370;2022-10-31T00:14:01;100521.59;;;18.23;67.39
71239;BME280;61342;51.442;7.370;2022-10-31T00:15:01;100512.09;;;18.30;67.49
71239;BME280;61342;51.442;7.370;2022-10-31T00:16:02;100523.38;;;18.41;67.12
71239;BME280;61342;51.442;7.370;2022-10-31T00:17:02;100524.19;;;18.49;67.22
71239;BME280;61342;51.442;7.370;2022-10-31T00:18:03;100527.13;;;18.56;67.17
71239;BME280;61342;51.442;7.370;2022-10-31T00:19:06;100518.41;;;18.64;66.83
71239;BME280;61342;51.442;7.370;2022-10-31T00:20:07;100524.41;;;18.66;66.80
71239;BME280;61342;51.442;7.370;2022-10-31T00:21:07;100516.25;;;18.64;66.61
71239;BME280;61342;51.442;7.370;2022-10-31T00:22:08;100515.31;;;18.69;66.45
71239;BME280;61342;51.442;7.370;2022-10-31T00:23:09;100526.38;;;18.71;66.20
71239;BME280;61342;51.442;7.370;2022-10-31T00:24:10;100518.59;;;18.66;66.20
71239;BME280;61342;51.442;7.370;2022-10-31T00:25:11;100525.41;;;18.68;66.67
71239;BME280;61342;51.442;7.370;2022-10-31T00:26:11;100518.59;;;18.66;66.67
71239;BME280;61342;51.442;7.370;2022-10-31T00:27:12;100522.25;;;18.66;66.34
71239;BME280;61342;51.442;7.370;2022-10-31T00:28:12;100524.78;;;18.62;66.82
71239;BME280;61342;51.442;7.370;2022-10-31T00:29:12;100518.78;;;18.60;66.77
71239;BME280;61342;51.442;7.370;2022-10-31T00:30:13;100524.22;;;18.56;66.85
71239;BME280;61342;51.442;7.370;2022-10-31T00:31:13;100522.47;;;18.53;67.14
71239;BME280;61342;51.442;7.370;2022-10-31T00:32:14;100520.09;;;18.52;67.30
71239;BME280;61342;51.442;7.370;2022-10-31T00:33:14;100533.72;;;18.50;67.23
71239;BME280;61342;51.442;7.370;2022-10-31T00:34:14;100519.53;;;18.46;67.12
71239;BME280;61342;51.442;7.370;2022-10-31T00:35:15;100522.03;;;18.42;67.28
71239;BME280;61342;51.442;7.370;2022-10-31T00:36:17;100529.19;;;18.41;67.61
71239;BME280;61342;51.442;7.370;2022-10-31T00:37:18;100531.13;;;18.39;67.87
71239;BME280;61342;51.442;7.370;2022-10-31T00:38:18;100524.91;;;18.35;68.01
71239;BME280;61342;51.442;7.370;2022-10-31T00:39:19;100524.31;;;18.29;67.55
71239;BME280;61342;51.442;7.370;2022-10-31T00:40:19;100524.31;;;18.29;67.60
71239;BME280;61342;51.442;7.370;2022-10-31T00:41:19;100528.38;;;18.26;67.96
71239;BME280;61342;51.442;7.370;2022-10-31T00:42:20;100520.78;;;18.23;68.09
71239;BME280;61342;51.442;7.370;2022-10-31T00:43:20;100519.63;;;18.18;68.26
71239;BME280;61342;51.442;7.370;2022-10-31T00:44:20;100523.53;;;18.21;68.25
71239;BME280;61342;51.442;7.370;2022-10-31T00:45:21;100518.84;;;18.18;68.40
71239;BME280;61342;51.442;7.370;2022-10-31T00:46:21;100523.91;;;18.25;68.63
71239;BME280;61342;51.442;7.370;2022-10-31T00:47:21;100518.50;;;18.29;68.78
71239;BME280;61342;51.442;7.370;2022-10-31T00:48:22;100516.38;;;18.37;68.33
71239;BME280;61342;51.442;7.370;2022-10-31T00:49:22;100522.41;;;18.39;68.33
71239;BME280;61342;51.442;7.370;2022-10-31T00:50:22;100511.56;;;18.47;68.16
71239;BME280;61342;51.442;7.370;2022-10-31T00:51:23;100516.81;;;18.55;67.88
71239;BME280;61342;51.442;7.370;2022-10-31T00:52:23;100510.03;;;18.60;68.26
71239;BME280;61342;51.442;7.370;2022-10-31T00:53:23;100514.13;;;18.65;67.72
71239;BME280;61342;51.442;7.370;2022-10-31T00:54:24;100512.00;;;18.65;67.52
71239;BME280;61342;51.442;7.370;2022-10-31T00:55:24;100519.34;;;18.66;67.55
71239;BME280;61342;51.442;7.370;2022-10-31T00:56:24;100520.91;;;18.67;67.70
71239;BME280;61342;51.442;7.370;2022-10-31T00:57:25;100521.72;;;18.68;67.97
71239;BME280;61342;51.442;7.370;2022-10-31T00:58:25;100508.88;;;18.63;68.08
71239;BME280;61342;51.442;7.370;2022-10-31T00:59:25;100515.69;;;18.66;67.60
71239;BME280;61342;51.442;7.370;2022-10-31T01:00:26;100517.59;;;18.63;67.68
71239;BME280;61342;51.442;7.370;2022-10-31T01:01:27;100521.69;;;18.60;67.86
71239;BME280;61342;51.442;7.370;2022-10-31T01:02:27;100520.50;;;18.56;67.82
71239;BME280;61342;51.442;7.370;2022-10-31T01:03:30;100514.84;;;18.50;68.16
71239;BME280;61342;51.442;7.370;2022-10-31T01:04:30;100528.66;;;18.50;67.68
71239;BME280;61342;51.442;7.370;2022-10-31T01:05:31;100524.56;;;18.46;68.22
71239;BME280;61342;51.442;7.370;2022-10-31T01:06:31;100515.44;;;18.42;68.41
71239;BME280;61342;51.442;7.370;2022-10-31T01:07:35;100521.81;;;18.40;68.40
71239;BME280;61342;51.442;7.370;2022-10-31T01:08:36;100526.47;;;18.36;68.43
71239;BME280;61342;51.442;7.370;2022-10-31T01:09:37;100528.78;;;18.30;68.67
71239;BME280;61342;51.442;7.370;2022-10-31T01:10:37;100523.91;;;18.25;68.32
71239;BME280;61342;51.442;7.370;2022-10-31T01:11:37;100527.78;;;18.20;68.87
71239;BME280;61342;51.442;7.370;2022-10-31T01:12:42;100535.16;;;18.21;68.48
71239;BME280;61342;51.442;7.370;2022-10-31T01:13:43;100526.53;;;18.15;68.84
71239;BME280;61342;51.442;7.370;2022-10-31T01:14:45;100522.09;;;18.14;68.85
71239;BME280;61342;51.442;7.370;2022-10-31T01:15:45;100516.66;;;18.11;68.92
71239;BME280;61342;51.442;7.370;2022-10-31T01:16:53;100530.78;;;18.07;69.14
71239;BME280;61342;51.442;7.370;2022-10-31T01:17:53;100537.78;;;18.04;69.46
71239;BME280;61342;51.442;7.370;2022-10-31T01:18:53;100544.75;;;18.01;69.29
71239;BME280;61342;51.442;7.370;2022-10-31T01:19:54;100532.91;;;17.99;69.59
71239;BME280;61342;51.442;7.370;2022-10-31T01:21:02;100530.19;;;18.01;69.48
71239;BME280;61342;51.442;7.370;2022-10-31T01:22:03;100536.63;;;18.07;69.71
71239;BME280;61342;51.442;7.370;2022-10-31T01:23:03;100535.66;;;18.12;69.76
71239;BME280;61342;51.442;7.370;2022-10-31T01:24:04;100524.66;;;18.18;69.71
71239;BME280;61342;51.442;7.370;2022-10-31T01:25:05;100529.75;;;18.25;69.74
71239;BME280;61342;51.442;7.370;2022-10-31T01:26:10;100523.94;;;18.32;69.42
71239;BME280;61342;51.442;7.370;2022-10-31T01:27:11;100520.06;;;18.37;69.42
71239;BME280;61342;51.442;7.370;2022-10-31T01:28:11;100522.03;;;18.42;68.95
71239;BME280;61342;51.442;7.370;2022-10-31T01:29:11;100515.44;;;18.42;68.95
71239;BME280;61342;51.442;7.370;2022-10-31T01:30:12;100526.69;;;18.45;69.04
71239;BME280;61342;51.442;7.370;2022-10-31T01:31:12;100519.31;;;18.44;68.66
71239;BME280;61342;51.442;7.370;2022-10-31T01:32:12;100527.09;;;18.42;68.62
71239;BME280;61342;51.442;7.370;2022-10-31T01:33:13;100531.34;;;18.41;68.66
71239;BME280;61342;51.442;7.370;2022-10-31T01:34:15;100536.38;;;18.40;68.87
71239;BME280;61342;51.442;7.370;2022-10-31T01:35:16;100545.50;;;18.37;68.69
71239;BME280;61342;51.442;7.370;2022-10-31T01:36:26;100544.31;;;18.32;68.33
71239;BME280;61342;51.442;7.370;2022-10-31T01:37:26;100541.00;;;18.28;68.57
71239;BME280;61342;51.442;7.370;2022-10-31T01:38:27;100539.81;;;18.24;68.75
71239;BME280;61342;51.442;7.370;2022-10-31T01:39:27;100539.81;;;18.24;69.05
71239;BME280;61342;51.442;7.370;2022-10-31T01:40:29;100549.72;;;18.21;69.21
71239;BME280;61342;51.442;7.370;2022-10-31T01:41:32;100550.06;;;18.17;69.25
71239;BME280;61342;51.442;7.370;2022-10-31T01:42:33;100546.16;;;18.15;68.98
71239;BME280;61342;51.442;7.370;2022-10-31T01:43:53;100545.91;;;18.05;69.19
71239;BME280;61342;51.442;7.370;2022-10-31T01:45:00;100556.56;;;18.03;69.60
71239;BME280;61342;51.442;7.370;2022-10-31T01:46:00;100569.56;;;18.02;69.55
71239;BME280;61342;51.442;7.370;2022-10-31T01:47:12;100562.72;;;17.92;70.24
71239;BME280;61342;51.442;7.370;2022-10-31T01:48:16;100567.19;;;17.93;70.23
71239;BME280;61342;51.442;7.370;2022-10-31T01:49:22;100569.91;;;17.91;70.34
71239;BME280;61342;51.442;7.370;2022-10-31T01:50:33;100564.41;;;17.80;69.88
71239;BME280;61342;51.442;7.370;2022-10-31T01:51:39;100573.31;;;17.82;70.08
71239;BME280;61342;51.442;7.370;2022-10-31T01:52:47;100564.41;;;17.80;70.24
71239;BME280;61342;51.442;7.370;2022-10-31T01:53:51;100568.66;;;17.79;70.06
71239;BME280;61342;51.442;7.370;2022-10-31T01:55:04;100565.91;;;17.74;70.67
71239;BME280;61342;51.442;7.370;2022-10-31T01:56:05;100564.41;;;17.80;70.71
71239;BME280;61342;51.442;7.370;2022-10-31T01:57:08;100552.97;;;17.82;70.88
71239;BME280;61342;51.442;7.370;2022-10-31T01:58:13;100556.50;;;17.88;70.68
71239;BME280;61342;51.442;7.370;2022-10-31T01:59:16;100544.13;;;17.95;70.64
71239;BME280;61342;51.442;7.370;2022-10-31T02:00:20;100547.84;;;18.03;70.30
71239;BME280;61342;51.442;7.370;2022-10-31T02:01:21;100537.00;;;18.11;70.40
71239;BME280;61342;51.442;7.370;2022-10-31T02:02:22;100518.41;;;18.14;69.42
71239;BME280;61342;51.442;7.370;2022-10-31T02:03:25;100527.97;;;18.22;69.84
71239;BME280;61342;51.442;7.370;2022-10-31T02:04:26;100525.06;;;18.22;69.47
71239;BME280;61342;51.442;7.370;2022-10-31T02:05:28;100525.44;;;18.26;69.22
71239;BME280;61342;51.442;7.370;2022-10-31T02:06:52;100515.78;;;18.23;69.03
71239;BME280;61342;51.442;7.370;2022-10-31T02:08:02;100511.47;;;18.24;69.37
71239;BME280;61342;51.442;7.370;2022-10-31T02:09:05;100508.56;;;18.24;69.35
71239;BME280;61342;51.442;7.370;2022-10-31T02:10:06;100514.97;;;18.23;68.97
71239;BME280;61342;51.442;7.370;2022-10-31T02:11:07;100505.25;;;18.20;69.11
71239;BME280;61342;51.442;7.370;2022-10-31T02:12:09;100514.56;;;18.19;69.23
71239;BME280;61342;51.442;7.370;2022-10-31T02:13:11;100506.00;;;18.13;68.88
71239;BME280;61342;51.442;7.370;2022-10-31T02:14:13;100511.81;;;18.13;69.00
71239;BME280;61342;51.442;7.370;2022-10-31T02:15:13;100507.72;;;18.09;69.56
71239;BME280;61342;51.442;7.370;2022-10-31T02:16:13;100504.41;;;18.05;69.38
71239;BME280;61342;51.442;7.370;2022-10-31T02:17:14;100504.78;;;18.01;69.56
71239;BME280;61342;51.442;7.370;2022-10-31T02:18:15;100505.16;;;17.98;69.68
71239;BME280;61342;51.442;7.370;2022-10-31T02:19:24;100497.75;;;17.90;69.73
71239;BME280;61342;51.442;7.370;2022-10-31T02:20:33;100501.25;;;17.88;69.56
71239;BME280;61342;51.442;7.370;2022-10-31T02:22:02;100502.91;;;17.76;69.98
71239;BME280;61342;51.442;7.370;2022-10-31T02:34:25;100494.16;;;17.69;71.10
71239;BME280;61342;51.442;7.370;2022-10-31T02:36:32;100492.63;;;17.75;70.80
71239;BME280;61342;51.442;7.370;2022-10-31T02:38:29;100494.63;;;17.88;70.20
71239;BME280;61342;51.442;7.370;2022-10-31T02:39:55;100502.78;;;17.89;70.03
71239;BME280;61342;51.442;7.370;2022-10-31T02:41:26;100507.06;;;17.88;69.65
71239;BME280;61342;51.442;7.370;2022-10-31T02:42:33;100497.91;;;17.84;69.95
71239;BME280;61342;51.442;7.370;2022-10-31T02:45:10;100502.91;;;17.76;69.79
71239;BME280;61342;51.442;7.370;2022-10-31T02:46:33;100512.78;;;17.73;69.44
71239;BME280;61342;51.442;7.370;2022-10-31T02:47:37;100508.88;;;17.71;69.74
71239;BME280;61342;51.442;7.370;2022-10-31T02:48:39;100509.28;;;17.67;69.82
71239;BME280;61342;51.442;7.370;2022-10-31T02:51:05;100499.31;;;17.55;70.45
71239;BME280;61342;51.442;7.370;2022-10-31T02:52:29;100501.59;;;17.49;70.18
71239;BME280;61342;51.442;7.370;2022-10-31T02:53:34;100501.97;;;17.46;70.75
71239;BME280;61342;51.442;7.370;2022-10-31T02:54:35;100493.38;;;17.40;71.01
71239;BME280;61342;51.442;7.370;2022-10-31T02:56:35;100505.16;;;17.35;71.10
71239;BME280;61342;51.442;7.370;2022-10-31T02:57:36;100501.09;;;17.31;71.40
71239;BME280;61342;51.442;7.370;2022-10-31T02:58:43;100512.88;;;17.25;71.43
71239;BME280;61342;51.442;7.370;2022-10-31T02:59:48;100515.53;;;17.23;71.35
71239;BME280;61342;51.442;7.370;2022-10-31T03:03:27;100513.09;;;17.07;71.73
71239;BME280;61342;51.442;7.370;2022-10-31T03:05:56;100512.44;;;17.01;71.99
71239;BME280;61342;51.442;7.370;2022-10-31T03:08:20;100518.97;;;16.94;72.35
71239;BME280;61342;51.442;7.370;2022-10-31T03:09:26;100520.31;;;16.93;72.63
71239;BME280;61342;51.442;7.370;2022-10-31T03:10:47;100522.06;;;16.96;72.31
71239;BME280;61342;51.442;7.370;2022-10-31T03:12:10;100523.84;;;16.99;72.16
71239;BME280;61342;51.442;7.370;2022-10-31T03:13:24;100533.84;;;17.11;72.35
71239;BME280;61342;51.442;7.370;2022-10-31T03:14:41;100534.44;;;17.17;71.87
71239;BME280;61342;51.442;7.370;2022-10-31T03:15:46;100537.47;;;17.24;71.91
71239;BME280;61342;51.442;7.370;2022-10-31T03:16:50;100529.91;;;17.29;71.40
71239;BME280;61342;51.442;7.370;2022-10-31T03:18:03;100533.63;;;17.29;71.51
71239;BME280;61342;51.442;7.370;2022-10-31T03:19:35;100535.16;;;17.30;71.48
71239;BME280;61342;51.442;7.370;2022-10-31T03:20:40;100537.09;;;17.28;71.40
71239;BME280;61342;51.442;7.370;2022-10-31T03:21:55;100543.28;;;17.24;70.84
71239;BME280;61342;51.442;7.370;2022-10-31T03:22:59;100541.13;;;17.25;71.30
71239;BME280;61342;51.442;7.370;2022-10-31T03:24:02;100545.91;;;17.22;71.20
71239;BME280;61342;51.442;7.370;2022-10-31T03:25:05;100536.78;;;17.18;71.15
71239;BME280;61342;51.442;7.370;2022-10-31T03:26:08;100537.16;;;17.15;71.24
71239;BME280;61342;51.442;7.370;2022-10-31T03:27:13;100530.94;;;17.11;71.55
71239;BME280;61342;51.442;7.370;2022-10-31T03:28:19;100540.75;;;17.08;71.21
71239;BME280;61342;51.442;7.370;2022-10-31T03:29:26;100538.56;;;17.01;71.26
71239;BME280;61342;51.442;7.370;2022-10-31T03:30:29;100537.38;;;16.96;71.40
71239;BME280;61342;51.442;7.370;2022-10-31T03:31:38;100528.41;;;16.87;71.78
71239;BME280;61342;51.442;7.370;2022-10-31T03:32:48;100542.69;;;16.85;71.81
71239;BME280;61342;51.442;7.370;2022-10-31T03:33:50;100532.78;;;16.80;72.01
71239;BME280;61342;51.442;7.370;2022-10-31T03:34:55;100536.81;;;16.77;72.43
71239;BME280;61342;51.442;7.370;2022-10-31T03:35:59;100535.59;;;16.73;72.14
71239;BME280;61342;51.442;7.370;2022-10-31T03:37:03;100548.38;;;16.70;72.20
71239;BME280;61342;51.442;7.370;2022-10-31T03:38:05;100543.47;;;16.65;72.79
71239;BME280;61342;51.442;7.370;2022-10-31T03:39:09;100544.81;;;16.64;72.46
71239;BME280;61342;51.442;7.370;2022-10-31T03:40:12;100536.22;;;16.59;72.86
71239;BME280;61342;51.442;7.370;2022-10-31T03:41:19;100538.50;;;16.53;72.86
71239;BME280;61342;51.442;7.370;2022-10-31T03:42:24;100535.94;;;16.49;72.86
71239;BME280;61342;51.442;7.370;2022-10-31T03:43:29;100531.47;;;16.48;72.76
71239;BME280;61342;51.442;7.370;2022-10-31T03:44:32;100544.22;;;16.45;72.84
71239;BME280;61342;51.442;7.370;2022-10-31T03:45:39;100530.63;;;16.40;73.20
71239;BME280;61342;51.442;7.370;2022-10-31T03:46:41;100529.19;;;16.34;73.13
71239;BME280;61342;51.442;7.370;2022-10-31T03:47:43;100533.09;;;16.36;73.38
71239;BME280;61342;51.442;7.370;2022-10-31T03:48:44;100538.47;;;16.32;73.78
71239;BME280;61342;51.442;7.370;2022-10-31T03:49:44;100529.56;;;16.30;73.87
71239;BME280;61342;51.442;7.370;2022-10-31T03:52:40;100527.63;;;16.33;73.58
71239;BME280;61342;51.442;7.370;2022-10-31T03:53:45;100537.09;;;16.46;73.70
71239;BME280;61342;51.442;7.370;2022-10-31T03:55:18;100537.72;;;16.52;73.62
71239;BME280;61342;51.442;7.370;2022-10-31T03:56:24;100532.44;;;16.64;73.19
71239;BME280;61342;51.442;7.370;2022-10-31T03:58:59;100524.75;;;16.73;72.64
71239;BME280;61342;51.442;7.370;2022-10-31T04:00:10;100531.78;;;16.78;72.70
71239;BME280;61342;51.442;7.370;2022-10-31T04:01:14;100526.00;;;16.78;72.50
71239;BME280;61342;51.442;7.370;2022-10-31T04:02:18;100526.00;;;16.78;72.59
71239;BME280;61342;51.442;7.370;2022-10-31T04:03:26;100526.56;;;16.76;72.55
71239;BME280;61342;51.442;7.370;2022-10-31T04:04:29;100533.91;;;16.77;72.57
71239;BME280;61342;51.442;7.370;2022-10-31T04:05:30;100537.38;;;16.76;72.29
71239;BME280;61342;51.442;7.370;2022-10-31T04:06:34;100523.56;;;16.69;72.60
71239;BME280;61342;51.442;7.370;2022-10-31T04:07:39;100522.22;;;16.70;72.66
71239;BME280;61342;51.442;7.370;2022-10-31T04:08:45;100519.47;;;16.65;72.71
71239;BME280;61342;51.442;7.370;2022-10-31T04:09:48;100526.19;;;16.60;73.01
71239;BME280;61342;51.442;7.370;2022-10-31T04:10:52;100525.75;;;16.56;72.89
71239;BME280;61342;51.442;7.370;2022-10-31T04:11:56;100523.00;;;16.50;72.83
71239;BME280;61342;51.442;7.370;2022-10-31T04:13:02;100530.16;;;16.49;73.33
71239;BME280;61342;51.442;7.370;2022-10-31T04:14:04;100532.63;;;16.45;73.22
71239;BME280;61342;51.442;7.370;2022-10-31T04:15:06;100524.25;;;16.42;73.71
71239;BME280;61342;51.442;7.370;2022-10-31T04:16:08;100511.22;;;16.35;73.74
71239;BME280;61342;51.442;7.370;2022-10-31T04:17:13;100513.13;;;16.33;73.80
71239;BME280;61342;51.442;7.370;2022-10-31T04:18:14;100519.28;;;16.29;73.59
71239;BME280;61342;51.442;7.370;2022-10-31T04:19:15;100515.94;;;16.25;73.67
71239;BME280;61342;51.442;7.370;2022-10-31T04:20:17;100519.91;;;16.22;74.03
71239;BME280;61342;51.442;7.370;2022-10-31T04:21:17;100522.63;;;16.20;74.04
71239;BME280;61342;51.442;7.370;2022-10-31T04:22:17;100516.97;;;16.15;74.05
71239;BME280;61342;51.442;7.370;2022-10-31T04:23:25;100515.97;;;16.13;73.96
71239;BME280;61342;51.442;7.370;2022-10-31T04:24:26;100509.91;;;16.11;74.37
71239;BME280;61342;51.442;7.370;2022-10-31T04:25:26;100508.16;;;16.08;74.77
71239;BME280;61342;51.442;7.370;2022-10-31T04:26:27;100505.59;;;16.04;74.29
71239;BME280;61342;51.442;7.370;2022-10-31T04:27:27;100506.50;;;15.99;74.39
71239;BME280;61342;51.442;7.370;2022-10-31T04:28:27;100503.81;;;16.01;74.59
71239;BME280;61342;51.442;7.370;2022-10-31T04:29:28;100511.53;;;15.99;74.65
71239;BME280;61342;51.442;7.370;2022-10-31T04:30:28;100501.81;;;15.96;75.07
71239;BME280;61342;51.442;7.370;2022-10-31T04:31:28;100512.66;;;15.96;75.14
71239;BME280;61342;51.442;7.370;2022-10-31T04:32:28;100508.06;;;16.00;75.28
71239;BME280;61342;51.442;7.370;2022-10-31T04:33:29;100518.19;;;16.07;75.24
71239;BME280;61342;51.442;7.370;2022-10-31T04:34:29;100514.19;;;16.10;75.66
71239;BME280;61342;51.442;7.370;2022-10-31T04:35:29;100518.97;;;16.20;75.19
71239;BME280;61342;51.442;7.370;2022-10-31T04:36:30;100512.25;;;16.25;75.24
71239;BME280;61342;51.442;7.370;2022-10-31T04:37:30;100510.00;;;16.31;74.70
71239;BME280;61342;51.442;7.370;2022-10-31T04:38:30;100507.53;;;16.35;74.65
71239;BME280;61342;51.442;7.370;2022-10-31T04:39:31;100507.19;;;16.38;74.16
71239;BME280;61342;51.442;7.370;2022-10-31T04:40:31;100517.09;;;16.43;74.22
71239;BME280;61342;51.442;7.370;2022-10-31T04:41:31;100510.72;;;16.44;73.96
71239;BME280;61342;51.442;7.370;2022-10-31T04:42:32;100513.63;;;16.44;73.73
71239;BME280;61342;51.442;7.370;2022-10-31T04:43:32;100509.97;;;16.44;73.66
71239;BME280;61342;51.442;7.370;2022-10-31T04:44:32;100523.09;;;16.45;73.52
71239;BME280;61342;51.442;7.370;2022-10-31T04:45:33;100519.25;;;16.42;73.52
71239;BME280;61342;51.442;7.370;2022-10-31T04:46:33;100514.34;;;16.37;73.53
71239;BME280;61342;51.442;7.370;2022-10-31T04:47:34;100519.34;;;16.37;73.64
71239;BME280;61342;51.442;7.370;2022-10-31T04:48:34;100523.94;;;16.32;73.66
71239;BME280;61342;51.442;7.370;2022-10-31T04:49:34;100528.00;;;16.29;73.29
71239;BME280;61342;51.442;7.370;2022-10-31T04:50:34;100524.66;;;16.25;73.60
71239;BME280;61342;51.442;7.370;2022-10-31T04:51:35;100523.63;;;16.23;73.89
71239;BME280;61342;51.442;7.370;2022-10-31T04:52:43;100520.63;;;16.15;73.74
71239;BME280;61342;51.442;7.370;2022-10-31T04:53:43;100514.81;;;16.15;73.61
71239;BME280;61342;51.442;7.370;2022-10-31T04:54:44;100509.16;;;16.10;73.99
71239;BME280;61342;51.442;7.370;2022-10-31T04:55:44;100515.72;;;16.11;74.35
71239;BME280;61342;51.442;7.370;2022-10-31T04:56:44;100515.53;;;16.09;74.06
71239;BME280;61342;51.442;7.370;2022-10-31T04:57:46;100510.63;;;16.04;74.64
71239;BME280;61342;51.442;7.370;2022-10-31T04:58:47;100505.72;;;15.99;74.28
71239;BME280;61342;51.442;7.370;2022-10-31T04:59:47;100504.19;;;15.98;74.41
71239;BME280;61342;51.442;7.370;2022-10-31T05:00:51;100505.28;;;15.95;74.87
71239;BME280;61342;51.442;7.370;2022-10-31T05:01:52;100503.50;;;15.92;74.62
71239;BME280;61342;51.442;7.370;2022-10-31T05:02:54;100499.03;;;15.91;74.91
71239;BME280;61342;51.442;7.370;2022-10-31T05:03:55;100496.50;;;15.87;75.19
71239;BME280;61342;51.442;7.370;2022-10-31T05:04:55;100494.38;;;15.88;75.10
71239;BME280;61342;51.442;7.370;2022-10-31T05:05:56;100488.16;;;15.84;75.30
71239;BME280;61342;51.442;7.370;2022-10-31T05:06:56;100491.38;;;15.80;75.61
71239;BME280;61342;51.442;7.370;2022-10-31T05:07:56;100495.41;;;15.77;75.47
71239;BME280;61342;51.442;7.370;2022-10-31T05:08:57;100490.38;;;15.78;75.57
71239;BME280;61342;51.442;7.370;2022-10-31T05:09:57;100507.56;;;15.76;75.95
71239;BME280;61342;51.442;7.370;2022-10-31T05:11:01;100500.31;;;15.69;75.49
71239;BME280;61342;51.442;7.370;2022-10-31T05:12:02;100495.28;;;15.70;75.66
71239;BME280;61342;51.442;7.370;2022-10-31T05:13:04;100500.88;;;15.68;75.39
71239;BME280;61342;51.442;7.370;2022-10-31T05:14:04;100490.19;;;15.63;76.06
71239;BME280;61342;51.442;7.370;2022-10-31T05:15:05;100502.53;;;15.63;75.74
71239;BME280;61342;51.442;7.370;2022-10-31T05:16:05;100498.88;;;15.63;75.66
71239;BME280;61342;51.442;7.370;2022-10-31T05:17:06;100493.84;;;15.63;76.13
71239;BME280;61342;51.442;7.370;2022-10-31T05:18:06;100494.09;;;15.65;75.80
71239;BME280;61342;51.442;7.370;2022-10-31T05:19:07;100493.75;;;15.69;76.21
71239;BME280;61342;51.442;7.370;2022-10-31T05:20:07;100494.19;;;15.73;75.97
71239;BME280;61342;51.442;7.370;2022-10-31T05:21:08;100495.06;;;15.81;76.22
71239;BME280;61342;51.442;7.370;2022-10-31T05:22:08;100496.72;;;15.89;76.07
71239;BME280;61342;51.442;7.370;2022-10-31T05:23:08;100503.75;;;15.94;75.50
71239;BME280;61342;51.442;7.370;2022-10-31T05:24:09;100497.00;;;15.99;75.44
71239;BME280;61342;51.442;7.370;2022-10-31T05:25:10;100501.72;;;16.02;75.05
71239;BME280;61342;51.442;7.370;2022-10-31T05:26:10;100490.31;;;16.04;74.83
71239;BME280;61342;51.442;7.370;2022-10-31T05:27:11;100491.09;;;16.04;74.55
71239;BME280;61342;51.442;7.370;2022-10-31T05:28:11;100494.78;;;16.05;74.22
71239;BME280;61342;51.442;7.370;2022-10-31T05:29:11;100493.44;;;16.06;74.30
71239;BME280;61342;51.442;7.370;2022-10-31T05:30:13;100491.09;;;16.04;74.20
71239;BME280;61342;51.442;7.370;2022-10-31T05:31:14;100489.31;;;16.01;74.30
71239;BME280;61342;51.442;7.370;2022-10-31T05:32:14;100484.97;;;15.95;74.23
71239;BME280;61342;51.442;7.370;2022-10-31T05:33:15;100489.69;;;15.98;74.19
71239;BME280;61342;51.442;7.370;2022-10-31T05:34:15;100487.13;;;15.94;74.58
71239;BME280;61342;51.442;7.370;2022-10-31T05:35:18;100493.25;;;15.91;74.67
71239;BME280;61342;51.442;7.370;2022-10-31T05:36:19;100483.34;;;15.86;74.49
71239;BME280;61342;51.442;7.370;2022-10-31T05:37:19;100474.97;;;15.83;74.84
71239;BME280;61342;51.442;7.370;2022-10-31T05:38:20;100484.81;;;15.80;74.57
71239;BME280;61342;51.442;7.370;2022-10-31T05:39:20;100480.69;;;15.75;74.59
71239;BME280;61342;51.442;7.370;2022-10-31T05:40:21;100475.78;;;15.70;74.76
71239;BME280;61342;51.442;7.370;2022-10-31T05:41:22;100476.38;;;15.69;74.90
71239;BME280;61342;51.442;7.370;2022-10-31T05:42:22;100479.59;;;15.65;75.05
71239;BME280;61342;51.442;7.370;2022-10-31T05:43:23;100477.03;;;15.62;75.03
71239;BME280;61342;51.442;7.370;2022-10-31T05:44:23;100486.06;;;15.58;74.91
71239;BME280;61342;51.442;7.370;2022-10-31T05:45:24;100479.03;;;15.54;75.07
71239;BME280;61342;51.442;7.370;2022-10-31T05:46:24;100482.28;;;15.51;75.51
71239;BME280;61342;51.442;7.370;2022-10-31T05:47:24;100483.63;;;15.50;75.14
71239;BME280;61342;51.442;7.370;2022-10-31T05:48:25;100475.94;;;15.39;75.18
71239;BME280;61342;51.442;7.370;2022-10-31T05:49:25;100484.31;;;15.43;75.41
71239;BME280;61342;51.442;7.370;2022-10-31T05:50:28;100481.16;;;15.41;75.78
71239;BME280;61342;51.442;7.370;2022-10-31T05:51:28;100478.41;;;15.35;76.01
71239;BME280;61342;51.442;7.370;2022-10-31T05:52:28;100487.09;;;15.35;75.64
71239;BME280;61342;51.442;7.370;2022-10-31T05:53:29;100487.19;;;15.30;75.82
71239;BME280;61342;51.442;7.370;2022-10-31T05:54:29;100474.94;;;15.24;75.64
71239;BME280;61342;51.442;7.370;2022-10-31T05:55:30;100473.03;;;15.26;76.13